sensor_id;sensor_type;location;lat;lon;timestamp;pressure;altitude;pressure_sealevel;temperature;humidity
35248;BME280;21380;52.194;20.520;2024-03-17T00:02:19;100589.25;;;17.62;63.09
35248;BME280;21380;52.194;20.520;2024-03-17T00:04:45;100587.50;;;17.60;62.82
35248;BME280;21380;52.194;20.520;2024-03-17T00:07:11;100585.72;;;17.57;62.53
35248;BME280;21380;52.194;20.520;2024-03-17T00:09:37;100592.63;;;17.55;62.00
35248;BME280;21380;52.194;20.520;2024-03-17T00:12:03;100587.41;;;17.54;62.32
35248;BME280;21380;52.194;20.520;2024-03-17T00:14:28;100590.84;;;17.51;62.10
35248;BME280;21380;52.194;20.520;2024-03-17T00:16:54;100584.75;;;17.49;61.69
35248;BME280;21380;52.194;20.520;2024-03-17T00:19:20;100589.09;;;17.50;62.29
35248;BME280;21380;52.194;20.520;2024-03-17T00:21:48;100591.69;;;17.50;61.55
35248;BME280;21380;52.194;20.520;2024-03-17T00:24:16;100595.13;;;17.47;61.58
35248;BME280;21380;52.194;20.520;2024-03-17T00:26:42;100591.66;;;17.47;61.88
35248;BME280;21380;52.194;20.520;2024-03-17T00:29:07;100589.06;;;17.47;62.19
35248;BME280;21380;52.194;20.520;2024-03-17T00:31:34;100589.91;;;17.46;62.30
35248;BME280;21380;52.194;20.520;2024-03-17T00:34:00;100592.53;;;17.47;62.34
35248;BME280;21380;52.194;20.520;2024-03-17T00:36:26;100596.88;;;17.47;62.29
35248;BME280;21380;52.194;20.520;2024-03-17T00:38:51;100591.66;;;17.45;61.80
35248;BME280;21380;52.194;20.520;2024-03-17T00:41:18;100585.53;;;17.43;61.79
35248;BME280;21380;52.194;20.520;2024-03-17T00:43:44;100582.06;;;17.43;61.77
35248;BME280;21380;52.194;20.520;2024-03-17T00:46:13;100589.81;;;17.40;61.16
35248;BME280;21380;52.194;20.520;2024-03-17T00:48:38;100597.63;;;17.38;61.15
35248;BME280;21380;52.194;20.520;2024-03-17T00:51:05;100595.00;;;17.37;61.24
35248;BME280;21380;52.194;20.520;2024-03-17T00:53:30;100602.81;;;17.37;61.20
35248;BME280;21380;52.194;20.520;2024-03-17T00:55:56;100595.81;;;17.34;61.18
35248;BME280;21380;52.194;20.520;2024-03-17T00:58:28;100602.75;;;17.33;60.87
35248;BME280;21380;52.194;20.520;2024-03-17T01:00:54;100601.00;;;17.32;61.03
35248;BME280;21380;52.194;20.520;2024-03-17T01:03:20;100613.19;;;17.33;61.30
35248;BME280;21380;52.194;20.520;2024-03-17T01:05:46;100595.78;;;17.32;60.90
35248;BME280;21380;52.194;20.520;2024-03-17T01:08:13;100604.47;;;17.31;61.06
35248;BME280;21380;52.194;20.520;2024-03-17T01:10:40;100607.09;;;17.31;61.08
35248;BME280;21380;52.194;20.520;2024-03-17T01:13:06;100598.38;;;17.31;60.91
35248;BME280;21380;52.194;20.520;2024-03-17T01:15:33;100600.09;;;17.30;60.85
35248;BME280;21380;52.194;20.520;2024-03-17T01:17:59;100600.97;;;17.31;60.98
35248;BME280;21380;52.194;20.520;2024-03-17T01:20:27;100599.22;;;17.30;61.04
35248;BME280;21380;52.194;20.520;2024-03-17T01:22:53;100600.97;;;17.31;60.98
35248;BME280;21380;52.194;20.520;2024-03-17T01:25:19;100587.06;;;17.30;61.04
35248;BME280;21380;52.194;20.520;2024-03-17T01:27:45;100590.53;;;17.29;60.69
35248;BME280;21380;52.194;20.520;2024-03-17T01:30:11;100585.31;;;17.29;60.99
35248;BME280;21380;52.194;20.520;2024-03-17T01:32:37;100581.81;;;17.29;61.12
35248;BME280;21380;52.194;20.520;2024-03-17T01:35:03;100583.56;;;17.28;60.99
35248;BME280;21380;52.194;20.520;2024-03-17T01:37:29;100595.75;;;17.29;60.93
35248;BME280;21380;52.194;20.520;2024-03-17T01:39:58;100590.53;;;17.29;61.02
35248;BME280;21380;52.194;20.520;2024-03-17T01:42:23;100590.53;;;17.29;60.75
35248;BME280;21380;52.194;20.520;2024-03-17T01:44:49;100590.53;;;17.29;60.68
35248;BME280;21380;52.194;20.520;2024-03-17T01:47:18;100592.28;;;17.30;60.43
35248;BME280;21380;52.194;20.520;2024-03-17T01:49:45;100595.75;;;17.29;60.53
35248;BME280;21380;52.194;20.520;2024-03-17T01:52:12;100592.25;;;17.29;60.23
35248;BME280;21380;52.194;20.520;2024-03-17T01:54:38;100595.75;;;17.29;60.16
35248;BME280;21380;52.194;20.520;2024-03-17T01:57:04;100598.34;;;17.29;59.90
35248;BME280;21380;52.194;20.520;2024-03-17T01:59:30;100600.97;;;17.29;60.02
35248;BME280;21380;52.194;20.520;2024-03-17T02:01:56;100599.22;;;17.30;60.17
35248;BME280;21380;52.194;20.520;2024-03-17T02:04:22;100595.75;;;17.29;59.97
35248;BME280;21380;52.194;20.520;2024-03-17T02:06:48;100594.84;;;17.29;59.79
35248;BME280;21380;52.194;20.520;2024-03-17T02:09:14;100602.66;;;17.29;60.02
35248;BME280;21380;52.194;20.520;2024-03-17T02:11:40;100599.19;;;17.28;59.75
35248;BME280;21380;52.194;20.520;2024-03-17T02:14:06;100599.19;;;17.28;59.64
35248;BME280;21380;52.194;20.520;2024-03-17T02:16:33;100601.81;;;17.28;59.83
35248;BME280;21380;52.194;20.520;2024-03-17T02:18:59;100613.09;;;17.27;59.73
35248;BME280;21380;52.194;20.520;2024-03-17T02:21:25;100613.09;;;17.27;59.93
35248;BME280;21380;52.194;20.520;2024-03-17T02:23:56;100615.66;;;17.24;60.04
35248;BME280;21380;52.194;20.520;2024-03-17T02:26:22;100620.84;;;17.23;59.79
35248;BME280;21380;52.194;20.520;2024-03-17T02:28:48;100625.16;;;17.22;59.98
35248;BME280;21380;52.194;20.520;2024-03-17T02:31:15;100625.16;;;17.21;59.79
35248;BME280;21380;52.194;20.520;2024-03-17T02:33:41;100632.06;;;17.20;59.72
35248;BME280;21380;52.194;20.520;2024-03-17T02:36:07;100632.06;;;17.18;59.44
35248;BME280;21380;52.194;20.520;2024-03-17T02:38:35;100627.69;;;17.17;59.39
35248;BME280;21380;52.194;20.520;2024-03-17T02:41:19;100629.44;;;17.17;59.62
35248;BME280;21380;52.194;20.520;2024-03-17T02:43:45;100629.44;;;17.17;59.60
35248;BME280;21380;52.194;20.520;2024-03-17T02:46:12;100630.28;;;17.16;59.48
35248;BME280;21380;52.194;20.520;2024-03-17T02:48:39;100638.94;;;17.15;59.67
35248;BME280;21380;52.194;20.520;2024-03-17T02:51:10;100636.31;;;17.13;59.19
35248;BME280;21380;52.194;20.520;2024-03-17T02:53:37;100641.53;;;17.13;59.35
35248;BME280;21380;52.194;20.520;2024-03-17T02:56:02;100644.97;;;17.12;59.55
35248;BME280;21380;52.194;20.520;2024-03-17T02:58:28;100634.53;;;17.11;59.33
35248;BME280;21380;52.194;20.520;2024-03-17T03:00:54;100646.72;;;17.10;59.17
35248;BME280;21380;52.194;20.520;2024-03-17T03:03:20;100642.31;;;17.08;58.89
35248;BME280;21380;52.194;20.520;2024-03-17T03:05:45;100636.22;;;17.07;59.09
35248;BME280;21380;52.194;20.520;2024-03-17T03:08:11;100635.34;;;17.07;59.09
35248;BME280;21380;52.194;20.520;2024-03-17T03:10:37;100633.59;;;17.06;59.08
35248;BME280;21380;52.194;20.520;2024-03-17T03:13:03;100640.53;;;17.05;59.14
35248;BME280;21380;52.194;20.520;2024-03-17T03:15:30;100644.00;;;17.04;58.90
35248;BME280;21380;52.194;20.520;2024-03-17T03:17:56;100641.34;;;17.02;58.92
35248;BME280;21380;52.194;20.520;2024-03-17T03:20:22;100645.66;;;17.00;58.72
35248;BME280;21380;52.194;20.520;2024-03-17T03:22:48;100642.22;;;17.01;58.86
35248;BME280;21380;52.194;20.520;2024-03-17T03:25:13;100640.44;;;17.00;58.67
35248;BME280;21380;52.194;20.520;2024-03-17T03:27:39;100641.31;;;17.01;58.62
35248;BME280;21380;52.194;20.520;2024-03-17T03:30:05;100643.03;;;16.99;58.57
35248;BME280;21380;52.194;20.520;2024-03-17T03:32:34;100634.31;;;16.98;58.31
35248;BME280;21380;52.194;20.520;2024-03-17T03:35:00;100642.16;;;16.98;58.44
35248;BME280;21380;52.194;20.520;2024-03-17T03:37:25;100630.84;;;16.98;58.37
35248;BME280;21380;52.194;20.520;2024-03-17T03:39:51;100635.16;;;16.97;58.35
35248;BME280;21380;52.194;20.520;2024-03-17T03:42:17;100627.34;;;16.97;58.58
35248;BME280;21380;52.194;20.520;2024-03-17T03:44:43;100627.34;;;16.97;58.41
35248;BME280;21380;52.194;20.520;2024-03-17T03:47:09;100622.13;;;16.97;58.73
35248;BME280;21380;52.194;20.520;2024-03-17T03:49:34;100622.13;;;16.97;58.43
35248;BME280;21380;52.194;20.520;2024-03-17T03:52:00;100615.22;;;16.98;58.49
35248;BME280;21380;52.194;20.520;2024-03-17T03:54:26;100627.34;;;16.97;58.37
35248;BME280;21380;52.194;20.520;2024-03-17T03:56:52;100624.75;;;16.97;58.62
35248;BME280;21380;52.194;20.520;2024-03-17T03:59:19;100633.47;;;16.98;58.41
35248;BME280;21380;52.194;20.520;2024-03-17T04:01:46;100624.75;;;16.97;58.45
35248;BME280;21380;52.194;20.520;2024-03-17T04:04:13;100623.88;;;16.97;58.29
35248;BME280;21380;52.194;20.520;2024-03-17T04:06:39;100619.38;;;16.90;58.18
35248;BME280;21380;52.194;20.520;2024-03-17T04:09:04;100629.91;;;16.94;58.19
35248;BME280;21380;52.194;20.520;2024-03-17T04:11:34;100622.97;;;16.95;58.07
35248;BME280;21380;52.194;20.520;2024-03-17T04:14:00;100629.06;;;16.95;57.72
35248;BME280;21380;52.194;20.520;2024-03-17T04:16:26;100636.91;;;16.95;57.99
35248;BME280;21380;52.194;20.520;2024-03-17T04:18:52;100635.13;;;16.94;58.00
35248;BME280;21380;52.194;20.520;2024-03-17T04:21:18;100642.06;;;16.94;57.72
35248;BME280;21380;52.194;20.520;2024-03-17T04:23:44;100646.41;;;16.95;57.74
35248;BME280;21380;52.194;20.520;2024-03-17T04:26:09;100640.31;;;16.93;57.88
35248;BME280;21380;52.194;20.520;2024-03-17T04:28:35;100642.03;;;16.92;57.61
35248;BME280;21380;52.194;20.520;2024-03-17T04:31:02;100648.97;;;16.92;57.96
35248;BME280;21380;52.194;20.520;2024-03-17T04:33:29;100642.88;;;16.91;58.08
35248;BME280;21380;52.194;20.520;2024-03-17T04:35:55;100641.13;;;16.90;57.84
35248;BME280;21380;52.194;20.520;2024-03-17T04:38:21;100644.59;;;16.91;57.75
35248;BME280;21380;52.194;20.520;2024-03-17T04:40:47;100641.97;;;16.89;57.99
35248;BME280;21380;52.194;20.520;2024-03-17T04:43:13;100641.06;;;16.89;57.69
35248;BME280;21380;52.194;20.520;2024-03-17T04:45:40;100649.78;;;16.89;57.60
35248;BME280;21380;52.194;20.520;2024-03-17T04:48:06;100649.75;;;16.88;58.00
35248;BME280;21380;52.194;20.520;2024-03-17T04:50:33;100648.84;;;16.87;57.56
35248;BME280;21380;52.194;20.520;2024-03-17T04:52:59;100647.16;;;16.88;57.64
35248;BME280;21380;52.194;20.520;2024-03-17T04:55:25;100647.09;;;16.86;57.47
35248;BME280;21380;52.194;20.520;2024-03-17T04:57:51;100647.91;;;16.83;57.73
35248;BME280;21380;52.194;20.520;2024-03-17T05:00:17;100654.03;;;16.84;57.95
35248;BME280;21380;52.194;20.520;2024-03-17T05:02:44;100654.88;;;16.83;57.74
35248;BME280;21380;52.194;20.520;2024-03-17T05:05:10;100648.75;;;16.81;57.64
35248;BME280;21380;52.194;20.520;2024-03-17T05:07:36;100653.97;;;16.81;57.67
35248;BME280;21380;52.194;20.520;2024-03-17T05:10:03;100657.41;;;16.80;57.21
35248;BME280;21380;52.194;20.520;2024-03-17T05:12:29;100654.75;;;16.77;57.36
35248;BME280;21380;52.194;20.520;2024-03-17T05:14:55;100660.81;;;16.76;57.32
35248;BME280;21380;52.194;20.520;2024-03-17T05:17:20;100650.38;;;16.74;57.20
35248;BME280;21380;52.194;20.520;2024-03-17T05:19:46;100644.25;;;16.74;57.34
35248;BME280;21380;52.194;20.520;2024-03-17T05:22:12;100649.44;;;16.72;57.27
35248;BME280;21380;52.194;20.520;2024-03-17T05:24:38;100645.13;;;16.73;57.15
35248;BME280;21380;52.194;20.520;2024-03-17T05:27:03;100642.47;;;16.71;57.02
35248;BME280;21380;52.194;20.520;2024-03-17T05:29:29;100645.06;;;16.69;56.92
35248;BME280;21380;52.194;20.520;2024-03-17T05:31:55;100644.16;;;16.67;56.46
35248;BME280;21380;52.194;20.520;2024-03-17T05:34:21;100658.06;;;16.68;56.90
35248;BME280;21380;52.194;20.520;2024-03-17T05:36:50;100649.34;;;16.67;56.68
35248;BME280;21380;52.194;20.520;2024-03-17T05:39:16;100645.88;;;16.67;56.77
35248;BME280;21380;52.194;20.520;2024-03-17T05:41:42;100648.47;;;16.65;56.70
35248;BME280;21380;52.194;20.520;2024-03-17T05:44:09;100645.88;;;16.65;56.52
35248;BME280;21380;52.194;20.520;2024-03-17T05:46:35;100653.66;;;16.64;56.61
35248;BME280;21380;52.194;20.520;2024-03-17T05:49:01;100639.75;;;16.63;56.68
35248;BME280;21380;52.194;20.520;2024-03-17T05:51:28;100647.56;;;16.65;56.64
35248;BME280;21380;52.194;20.520;2024-03-17T05:53:54;100644.09;;;16.64;56.53
35248;BME280;21380;52.194;20.520;2024-03-17T05:56:21;100649.28;;;16.63;56.39
35248;BME280;21380;52.194;20.520;2024-03-17T05:58:48;100654.50;;;16.63;56.33
35248;BME280;21380;52.194;20.520;2024-03-17T06:01:14;100655.34;;;16.62;56.47
35248;BME280;21380;52.194;20.520;2024-03-17T06:03:40;100652.75;;;16.62;56.00
35248;BME280;21380;52.194;20.520;2024-03-17T06:06:07;100654.44;;;16.61;56.12
35248;BME280;21380;52.194;20.520;2024-03-17T06:08:36;100659.66;;;16.61;56.48
35248;BME280;21380;52.194;20.520;2024-03-17T06:11:02;100657.91;;;16.60;56.00
35248;BME280;21380;52.194;20.520;2024-03-17T06:13:28;100659.63;;;16.60;56.17
35248;BME280;21380;52.194;20.520;2024-03-17T06:15:53;100657.03;;;16.60;56.20
35248;BME280;21380;52.194;20.520;2024-03-17T06:18:19;100653.56;;;16.59;55.98
35248;BME280;21380;52.194;20.520;2024-03-17T06:20:46;100653.56;;;16.59;56.33
35248;BME280;21380;52.194;20.520;2024-03-17T06:23:13;100656.19;;;16.61;56.26
35248;BME280;21380;52.194;20.520;2024-03-17T06:25:46;100667.44;;;16.60;56.25
35248;BME280;21380;52.194;20.520;2024-03-17T06:28:13;100662.22;;;16.58;56.20
35248;BME280;21380;52.194;20.520;2024-03-17T06:30:42;100663.94;;;16.58;55.89
35248;BME280;21380;52.194;20.520;2024-03-17T06:33:10;100667.41;;;16.57;55.63
35248;BME280;21380;52.194;20.520;2024-03-17T06:35:37;100663.91;;;16.56;55.85
35248;BME280;21380;52.194;20.520;2024-03-17T06:38:03;100672.59;;;16.55;56.00
35248;BME280;21380;52.194;20.520;2024-03-17T06:40:28;100669.97;;;16.55;55.59
35248;BME280;21380;52.194;20.520;2024-03-17T06:42:54;100680.41;;;16.57;55.95
35248;BME280;21380;52.194;20.520;2024-03-17T06:45:20;100669.97;;;16.55;55.42
35248;BME280;21380;52.194;20.520;2024-03-17T06:47:46;100676.03;;;16.54;55.21
35248;BME280;21380;52.194;20.520;2024-03-17T06:50:12;100679.50;;;16.54;55.55
35248;BME280;21380;52.194;20.520;2024-03-17T06:52:38;100675.13;;;16.53;55.38
35248;BME280;21380;52.194;20.520;2024-03-17T06:55:04;100681.25;;;16.54;55.47
35248;BME280;21380;52.194;20.520;2024-03-17T06:57:30;100675.97;;;16.52;55.60
35248;BME280;21380;52.194;20.520;2024-03-17T06:59:56;100677.72;;;16.52;55.39
35248;BME280;21380;52.194;20.520;2024-03-17T07:02:22;100679.41;;;16.50;55.27
35248;BME280;21380;52.194;20.520;2024-03-17T07:04:47;100678.56;;;16.51;55.61
35248;BME280;21380;52.194;20.520;2024-03-17T07:07:13;100682.88;;;16.49;55.22
35248;BME280;21380;52.194;20.520;2024-03-17T07:09:40;100675.06;;;16.49;54.99
35248;BME280;21380;52.194;20.520;2024-03-17T07:12:06;100687.16;;;16.47;55.23
35248;BME280;21380;52.194;20.520;2024-03-17T07:14:32;100681.03;;;16.45;54.56
35248;BME280;21380;52.194;20.520;2024-03-17T07:16:58;100686.25;;;16.45;55.01
35248;BME280;21380;52.194;20.520;2024-03-17T07:19:24;100688.00;;;16.46;54.58
35248;BME280;21380;52.194;20.520;2024-03-17T07:21:50;100688.00;;;16.46;54.80
35248;BME280;21380;52.194;20.520;2024-03-17T07:24:16;100689.75;;;16.45;54.48
35248;BME280;21380;52.194;20.520;2024-03-17T07:26:41;100699.25;;;16.43;54.39
35248;BME280;21380;52.194;20.520;2024-03-17T07:29:07;100695.72;;;16.41;54.26
35248;BME280;21380;52.194;20.520;2024-03-17T07:31:34;100688.78;;;16.42;54.83
35248;BME280;21380;52.194;20.520;2024-03-17T07:34:00;100694.00;;;16.42;54.43
35248;BME280;21380;52.194;20.520;2024-03-17T07:36:26;100690.47;;;16.40;54.18
35248;BME280;21380;52.194;20.520;2024-03-17T07:38:51;100699.19;;;16.40;54.34
35248;BME280;21380;52.194;20.520;2024-03-17T07:41:18;100703.50;;;16.40;53.77
35248;BME280;21380;52.194;20.520;2024-03-17T07:43:45;100689.59;;;16.37;53.92
35248;BME280;21380;52.194;20.520;2024-03-17T07:46:12;100686.94;;;16.36;53.74
35248;BME280;21380;52.194;20.520;2024-03-17T07:48:39;100687.78;;;16.35;53.94
35248;BME280;21380;52.194;20.520;2024-03-17T07:51:06;100699.94;;;16.36;53.84
35248;BME280;21380;52.194;20.520;2024-03-17T07:53:33;100693.91;;;16.37;54.36
35248;BME280;21380;52.194;20.520;2024-03-17T07:56:03;100687.00;;;16.37;54.64
35248;BME280;21380;52.194;20.520;2024-03-17T07:58:29;100696.53;;;16.38;54.45
35248;BME280;21380;52.194;20.520;2024-03-17T08:00:58;100686.09;;;16.37;54.15
35248;BME280;21380;52.194;20.520;2024-03-17T08:03:25;100684.38;;;16.37;54.01
35248;BME280;21380;52.194;20.520;2024-03-17T08:05:51;100687.00;;;16.37;54.28
35248;BME280;21380;52.194;20.520;2024-03-17T08:08:18;100692.19;;;16.37;54.25
35248;BME280;21380;52.194;20.520;2024-03-17T08:10:44;100686.09;;;16.37;54.21
35248;BME280;21380;52.194;20.520;2024-03-17T08:13:10;100685.22;;;16.36;54.44
35248;BME280;21380;52.194;20.520;2024-03-17T08:15:36;100697.34;;;16.36;53.94
35248;BME280;21380;52.194;20.520;2024-03-17T08:18:02;100692.13;;;16.36;53.75
35248;BME280;21380;52.194;20.520;2024-03-17T08:20:29;100701.69;;;16.35;54.09
35248;BME280;21380;52.194;20.520;2024-03-17T08:22:55;100699.09;;;16.35;54.23
35248;BME280;21380;52.194;20.520;2024-03-17T08:25:21;100692.13;;;16.36;54.09
35248;BME280;21380;52.194;20.520;2024-03-17T08:27:47;100691.28;;;16.35;53.93
35248;BME280;21380;52.194;20.520;2024-03-17T08:30:13;100700.84;;;16.36;54.04
35248;BME280;21380;52.194;20.520;2024-03-17T08:32:39;100689.59;;;16.37;54.17
35248;BME280;21380;52.194;20.520;2024-03-17T08:35:06;100693.88;;;16.35;54.00
35248;BME280;21380;52.194;20.520;2024-03-17T08:37:32;100706.06;;;16.36;53.93
35248;BME280;21380;52.194;20.520;2024-03-17T08:39:58;100698.19;;;16.35;54.02
35248;BME280;21380;52.194;20.520;2024-03-17T08:42:24;100692.94;;;16.33;53.84
35248;BME280;21380;52.194;20.520;2024-03-17T08:44:50;100703.38;;;16.33;53.45
35248;BME280;21380;52.194;20.520;2024-03-17T08:47:15;100697.28;;;16.33;53.67
35248;BME280;21380;52.194;20.520;2024-03-17T08:49:41;100705.06;;;16.31;53.65
35248;BME280;21380;52.194;20.520;2024-03-17T08:52:07;100709.38;;;16.31;53.65
35248;BME280;21380;52.194;20.520;2024-03-17T08:54:33;100719.78;;;16.29;53.51
35248;BME280;21380;52.194;20.520;2024-03-17T08:56:59;100723.19;;;16.27;53.26
35248;BME280;21380;52.194;20.520;2024-03-17T08:59:25;100719.66;;;16.25;53.61
35248;BME280;21380;52.194;20.520;2024-03-17T09:01:51;100724.88;;;16.25;53.52
35248;BME280;21380;52.194;20.520;2024-03-17T09:04:16;100724.03;;;16.26;53.71
35248;BME280;21380;52.194;20.520;2024-03-17T09:06:42;100718.81;;;16.26;53.77
35248;BME280;21380;52.194;20.520;2024-03-17T09:09:08;100722.28;;;16.26;53.50
35248;BME280;21380;52.194;20.520;2024-03-17T09:11:34;100725.78;;;16.25;53.54
35248;BME280;21380;52.194;20.520;2024-03-17T09:14:00;100730.97;;;16.25;53.67
35248;BME280;21380;52.194;20.520;2024-03-17T09:16:26;100724.00;;;16.24;53.85
35248;BME280;21380;52.194;20.520;2024-03-17T09:18:54;100721.41;;;16.24;53.67
35248;BME280;21380;52.194;20.520;2024-03-17T09:21:20;100717.91;;;16.24;53.84
35248;BME280;21380;52.194;20.520;2024-03-17T09:23:46;100711.84;;;16.25;53.69
35248;BME280;21380;52.194;20.520;2024-03-17T09:26:12;100713.59;;;16.24;53.96
35248;BME280;21380;52.194;20.520;2024-03-17T09:28:40;100709.22;;;16.23;53.65
35248;BME280;21380;52.194;20.520;2024-03-17T09:31:05;100712.66;;;16.22;53.88
35248;BME280;21380;52.194;20.520;2024-03-17T09:33:33;100706.63;;;16.23;53.76
35248;BME280;21380;52.194;20.520;2024-03-17T09:36:00;100717.88;;;16.22;53.76
35248;BME280;21380;52.194;20.520;2024-03-17T09:38:26;100702.22;;;16.20;54.02
35248;BME280;21380;52.194;20.520;2024-03-17T09:40:53;100714.38;;;16.20;53.87
35248;BME280;21380;52.194;20.520;2024-03-17T09:43:20;100710.88;;;16.19;53.54
35248;BME280;21380;52.194;20.520;2024-03-17T09:45:47;100713.47;;;16.19;54.00
35248;BME280;21380;52.194;20.520;2024-03-17T09:48:14;100709.19;;;16.20;53.84
35248;BME280;21380;52.194;20.520;2024-03-17T09:50:40;100717.81;;;16.19;53.75
35248;BME280;21380;52.194;20.520;2024-03-17T09:53:06;100715.22;;;16.19;53.80
35248;BME280;21380;52.194;20.520;2024-03-17T09:55:39;100728.53;;;13.50;54.20
35248;BME280;21380;52.194;20.520;2024-03-17T09:58:06;100733.53;;;12.95;55.78
35248;BME280;21380;52.194;20.520;2024-03-17T10:00:37;100712.50;;;13.89;55.50
35248;BME280;21380;52.194;20.520;2024-03-17T10:03:03;100723.63;;;14.42;54.70
35248;BME280;21380;52.194;20.520;2024-03-17T10:05:29;100734.91;;;14.73;54.16
35248;BME280;21380;52.194;20.520;2024-03-17T10:07:55;100737.34;;;14.98;52.63
35248;BME280;21380;52.194;20.520;2024-03-17T10:10:20;100733.44;;;15.14;52.22
35248;BME280;21380;52.194;20.520;2024-03-17T10:12:50;100729.34;;;15.23;52.09
35248;BME280;21380;52.194;20.520;2024-03-17T10:15:17;100729.56;;;15.31;52.13
35248;BME280;21380;52.194;20.520;2024-03-17T10:17:43;100716.75;;;15.37;52.28
35248;BME280;21380;52.194;20.520;2024-03-17T10:23:03;100725.59;;;15.46;52.29
35248;BME280;21380;52.194;20.520;2024-03-17T10:25:27;100718.78;;;15.51;52.05
35248;BME280;21380;52.194;20.520;2024-03-17T10:27:54;100718.91;;;15.55;52.01
35248;BME280;21380;52.194;20.520;2024-03-17T10:30:20;100721.63;;;15.60;51.94
35248;BME280;21380;52.194;20.520;2024-03-17T10:33:20;100714.78;;;15.64;52.22
35248;BME280;21380;52.194;20.520;2024-03-17T10:35:35;100712.22;;;15.65;52.31
35248;BME280;21380;52.194;20.520;2024-03-17T10:38:06;100715.78;;;15.69;52.53
35248;BME280;21380;52.194;20.520;2024-03-17T10:40:33;100714.03;;;15.69;52.81
35248;BME280;21380;52.194;20.520;2024-03-17T10:43:00;100712.34;;;15.70;52.60
35248;BME280;21380;52.194;20.520;2024-03-17T10:45:26;100708.94;;;15.72;52.35
35248;BME280;21380;52.194;20.520;2024-03-17T10:47:52;100712.38;;;15.71;52.04
35248;BME280;21380;52.194;20.520;2024-03-17T10:50:22;100709.78;;;15.73;52.10
35248;BME280;21380;52.194;20.520;2024-03-17T10:52:49;100723.66;;;15.73;52.27
35248;BME280;21380;52.194;20.520;2024-03-17T10:55:22;100727.16;;;15.74;51.74
35248;BME280;21380;52.194;20.520;2024-03-17T10:57:49;100728.06;;;15.76;51.74
35248;BME280;21380;52.194;20.520;2024-03-17T11:00:19;100719.38;;;15.76;52.27
35248;BME280;21380;52.194;20.520;2024-03-17T11:02:48;100722.03;;;15.77;51.73
35248;BME280;21380;52.194;20.520;2024-03-17T11:05:15;100720.34;;;15.79;51.56
35248;BME280;21380;52.194;20.520;2024-03-17T11:07:42;100730.78;;;15.81;51.67
35248;BME280;21380;52.194;20.520;2024-03-17T11:10:15;100717.78;;;15.81;51.58
35248;BME280;21380;52.194;20.520;2024-03-17T11:12:45;100721.28;;;15.81;52.15
35248;BME280;21380;52.194;20.520;2024-03-17T11:20:29;100725.56;;;15.81;51.83
35248;BME280;21380;52.194;20.520;2024-03-17T11:22:57;100723.81;;;15.80;51.92
35248;BME280;21380;52.194;20.520;2024-03-17T11:27:55;100729.16;;;15.84;52.25
35248;BME280;21380;52.194;20.520;2024-03-17T11:35:50;100741.31;;;15.84;51.70
35248;BME280;21380;52.194;20.520;2024-03-17T11:38:50;100741.25;;;15.82;51.82
35248;BME280;21380;52.194;20.520;2024-03-17T11:44:10;100749.81;;;15.80;51.68
35248;BME280;21380;52.194;20.520;2024-03-17T11:46:38;100745.50;;;15.79;51.98
35248;BME280;21380;52.194;20.520;2024-03-17T11:49:04;100741.16;;;15.79;51.81
35248;BME280;21380;52.194;20.520;2024-03-17T11:51:29;100740.31;;;15.80;51.82
35248;BME280;21380;52.194;20.520;2024-03-17T11:53:58;100740.38;;;15.82;51.67
35248;BME280;21380;52.194;20.520;2024-03-17T11:56:24;100737.81;;;15.83;51.79
35248;BME280;21380;52.194;20.520;2024-03-17T12:01:34;100739.34;;;12.89;51.21
35248;BME280;21380;52.194;20.520;2024-03-17T12:04:01;100739.47;;;13.68;51.32
35248;BME280;21380;52.194;20.520;2024-03-17T12:06:31;100734.25;;;14.21;51.11
35248;BME280;21380;52.194;20.520;2024-03-17T12:11:42;100734.25;;;14.81;50.36
35248;BME280;21380;52.194;20.520;2024-03-17T12:14:11;100732.03;;;14.95;49.37
35248;BME280;21380;52.194;20.520;2024-03-17T12:29:30;100728.25;;;16.20;46.48
35248;BME280;21380;52.194;20.520;2024-03-17T12:43:58;100716.75;;;16.50;45.84
35248;BME280;21380;52.194;20.520;2024-03-17T12:46:25;100727.78;;;16.38;46.53
35248;BME280;21380;52.194;20.520;2024-03-17T12:48:58;100723.25;;;16.30;46.69
35248;BME280;21380;52.194;20.520;2024-03-17T12:51:25;100721.44;;;16.26;46.41
35248;BME280;21380;52.194;20.520;2024-03-17T12:54:14;100730.88;;;16.22;46.88
35248;BME280;21380;52.194;20.520;2024-03-17T12:56:40;100726.59;;;16.23;46.79
35248;BME280;21380;52.194;20.520;2024-03-17T13:14:31;100753.31;;;16.55;46.06
35248;BME280;21380;52.194;20.520;2024-03-17T13:17:03;100753.88;;;16.42;46.61
35248;BME280;21380;52.194;20.520;2024-03-17T13:19:36;100747.72;;;16.38;46.63
35248;BME280;21380;52.194;20.520;2024-03-17T13:22:10;100749.38;;;16.33;46.94
35248;BME280;21380;52.194;20.520;2024-03-17T13:24:41;100745.03;;;16.33;46.94
35248;BME280;21380;52.194;20.520;2024-03-17T13:27:14;100752.78;;;16.30;47.19
35248;BME280;21380;52.194;20.520;2024-03-17T13:29:50;100748.47;;;16.32;47.01
35248;BME280;21380;52.194;20.520;2024-03-17T13:32:24;100758.03;;;16.33;46.97
35248;BME280;21380;52.194;20.520;2024-03-17T13:35:01;100754.53;;;16.31;47.15
35248;BME280;21380;52.194;20.520;2024-03-17T13:37:41;100752.78;;;16.30;46.86
35248;BME280;21380;52.194;20.520;2024-03-17T13:40:13;100745.84;;;16.31;47.04
35248;BME280;21380;52.194;20.520;2024-03-17T13:42:54;100746.78;;;16.34;46.80
35248;BME280;21380;52.194;20.520;2024-03-17T13:45:29;100747.63;;;16.33;46.53